sensor_id;sensor_type;location;lat;lon;timestamp;temperature;humidity
76577;DHT22;65441;44.748;37.600;2024-03-17T00:00:30;6.36;81.29
76577;DHT22;65441;44.748;37.600;2024-03-17T00:02:58;6.22;79.75
76577;DHT22;65441;44.748;37.600;2024-03-17T00:05:25;6.25;81.62
76577;DHT22;65441;44.748;37.600;2024-03-17T00:07:53;6.25;80.40
76577;DHT22;65441;44.748;37.600;2024-03-17T00:10:20;6.44;82.87
76577;DHT22;65441;44.748;37.600;2024-03-17T00:12:49;6.61;80.39
76577;DHT22;65441;44.748;37.600;2024-03-17T00:15:18;6.69;78.75
76577;DHT22;65441;44.748;37.600;2024-03-17T00:17:47;6.68;78.45
76577;DHT22;65441;44.748;37.600;2024-03-17T00:20:15;6.73;79.08
76577;DHT22;65441;44.748;37.600;2024-03-17T00:22:47;6.79;80.50
76577;DHT22;65441;44.748;37.600;2024-03-17T00:25:15;6.84;79.59
76577;DHT22;65441;44.748;37.600;2024-03-17T00:27:43;6.83;79.71
76577;DHT22;65441;44.748;37.600;2024-03-17T00:30:12;6.72;80.85
76577;DHT22;65441;44.748;37.600;2024-03-17T00:32:40;6.61;81.15
76577;DHT22;65441;44.748;37.600;2024-03-17T00:35:12;6.64;82.39
76577;DHT22;65441;44.748;37.600;2024-03-17T00:37:47;6.57;79.89
76577;DHT22;65441;44.748;37.600;2024-03-17T00:40:15;6.68;80.08
76577;DHT22;65441;44.748;37.600;2024-03-17T00:42:43;6.80;80.39
76577;DHT22;65441;44.748;37.600;2024-03-17T00:45:13;6.87;81.27
76577;DHT22;65441;44.748;37.600;2024-03-17T00:47:40;6.87;81.03
76577;DHT22;65441;44.748;37.600;2024-03-17T00:50:09;6.86;80.66
76577;DHT22;65441;44.748;37.600;2024-03-17T00:52:39;6.90;80.20
76577;DHT22;65441;44.748;37.600;2024-03-17T00:55:08;6.95;80.74
76577;DHT22;65441;44.748;37.600;2024-03-17T00:57:37;6.88;79.55
76577;DHT22;65441;44.748;37.600;2024-03-17T01:00:06;6.90;79.52
76577;DHT22;65441;44.748;37.600;2024-03-17T01:02:34;6.90;79.58
76577;DHT22;65441;44.748;37.600;2024-03-17T01:05:03;6.88;80.00
76577;DHT22;65441;44.748;37.600;2024-03-17T01:07:32;6.85;77.89
76577;DHT22;65441;44.748;37.600;2024-03-17T01:10:01;6.84;81.36
76577;DHT22;65441;44.748;37.600;2024-03-17T01:12:29;6.83;80.36
76577;DHT22;65441;44.748;37.600;2024-03-17T01:14:57;6.80;80.72
76577;DHT22;65441;44.748;37.600;2024-03-17T01:17:24;6.82;79.27
76577;DHT22;65441;44.748;37.600;2024-03-17T01:19:52;6.80;80.31
76577;DHT22;65441;44.748;37.600;2024-03-17T01:22:20;6.76;81.57
76577;DHT22;65441;44.748;37.600;2024-03-17T01:24:48;6.87;82.17
76577;DHT22;65441;44.748;37.600;2024-03-17T01:27:17;6.80;81.12
76577;DHT22;65441;44.748;37.600;2024-03-17T01:29:45;6.95;81.19
76577;DHT22;65441;44.748;37.600;2024-03-17T01:32:13;6.88;79.74
76577;DHT22;65441;44.748;37.600;2024-03-17T01:34:41;6.83;79.27
76577;DHT22;65441;44.748;37.600;2024-03-17T01:37:08;6.88;79.25
76577;DHT22;65441;44.748;37.600;2024-03-17T01:39:37;6.98;82.17
76577;DHT22;65441;44.748;37.600;2024-03-17T01:42:04;6.97;82.53
76577;DHT22;65441;44.748;37.600;2024-03-17T01:44:34;6.89;79.38
76577;DHT22;65441;44.748;37.600;2024-03-17T01:47:01;6.94;80.88
76577;DHT22;65441;44.748;37.600;2024-03-17T01:49:30;6.89;79.96
76577;DHT22;65441;44.748;37.600;2024-03-17T01:51:57;6.84;79.74
76577;DHT22;65441;44.748;37.600;2024-03-17T01:54:26;6.85;79.04
76577;DHT22;65441;44.748;37.600;2024-03-17T01:56:53;6.90;81.90
76577;DHT22;65441;44.748;37.600;2024-03-17T01:59:22;6.95;81.15
76577;DHT22;65441;44.748;37.600;2024-03-17T02:01:51;6.91;80.00
76577;DHT22;65441;44.748;37.600;2024-03-17T02:04:19;6.93;80.54
76577;DHT22;65441;44.748;37.600;2024-03-17T02:06:46;6.86;79.49
76577;DHT22;65441;44.748;37.600;2024-03-17T02:09:14;6.84;80.62
76577;DHT22;65441;44.748;37.600;2024-03-17T02:11:41;6.83;81.31
76577;DHT22;65441;44.748;37.600;2024-03-17T02:14:10;6.83;79.39
76577;DHT22;65441;44.748;37.600;2024-03-17T02:16:40;6.82;80.98
76577;DHT22;65441;44.748;37.600;2024-03-17T02:19:10;6.81;80.95
76577;DHT22;65441;44.748;37.600;2024-03-17T02:21:37;6.81;80.73
76577;DHT22;65441;44.748;37.600;2024-03-17T02:24:08;6.74;79.29
76577;DHT22;65441;44.748;37.600;2024-03-17T02:26:35;6.78;81.10
76577;DHT22;65441;44.748;37.600;2024-03-17T02:29:04;6.79;82.75
76577;DHT22;65441;44.748;37.600;2024-03-17T02:31:32;6.75;80.16
76577;DHT22;65441;44.748;37.600;2024-03-17T02:34:00;6.76;81.22
76577;DHT22;65441;44.748;37.600;2024-03-17T02:36:27;6.76;80.39
76577;DHT22;65441;44.748;37.600;2024-03-17T02:38:56;6.76;81.92
76577;DHT22;65441;44.748;37.600;2024-03-17T02:41:44;6.78;80.09
76577;DHT22;65441;44.748;37.600;2024-03-17T02:44:13;6.78;80.72
76577;DHT22;65441;44.748;37.600;2024-03-17T02:46:42;6.74;80.34
76577;DHT22;65441;44.748;37.600;2024-03-17T02:49:10;6.80;80.15
76577;DHT22;65441;44.748;37.600;2024-03-17T02:51:40;6.72;78.44
76577;DHT22;65441;44.748;37.600;2024-03-17T02:54:09;6.67;79.46
76577;DHT22;65441;44.748;37.600;2024-03-17T02:56:37;6.51;81.03
76577;DHT22;65441;44.748;37.600;2024-03-17T02:59:07;6.58;81.31
76577;DHT22;65441;44.748;37.600;2024-03-17T03:01:35;6.52;80.79
76577;DHT22;65441;44.748;37.600;2024-03-17T03:04:04;6.46;80.25
76577;DHT22;65441;44.748;37.600;2024-03-17T03:06:33;6.59;83.55
76577;DHT22;65441;44.748;37.600;2024-03-17T03:09:01;6.50;81.92
76577;DHT22;65441;44.748;37.600;2024-03-17T03:11:32;6.53;82.78
76577;DHT22;65441;44.748;37.600;2024-03-17T03:14:00;6.58;83.55
76577;DHT22;65441;44.748;37.600;2024-03-17T03:16:31;6.59;81.21
76577;DHT22;65441;44.748;37.600;2024-03-17T03:19:00;6.60;79.49
76577;DHT22;65441;44.748;37.600;2024-03-17T03:21:28;6.55;83.01
76577;DHT22;65441;44.748;37.600;2024-03-17T03:23:56;6.49;82.38
76577;DHT22;65441;44.748;37.600;2024-03-17T03:26:25;6.52;84.03
76577;DHT22;65441;44.748;37.600;2024-03-17T03:28:53;6.58;82.99
76577;DHT22;65441;44.748;37.600;2024-03-17T03:31:22;6.65;81.59
76577;DHT22;65441;44.748;37.600;2024-03-17T03:33:51;6.64;81.05
76577;DHT22;65441;44.748;37.600;2024-03-17T03:36:21;6.69;81.18
76577;DHT22;65441;44.748;37.600;2024-03-17T03:38:49;6.60;80.48
76577;DHT22;65441;44.748;37.600;2024-03-17T03:41:18;6.45;80.58
76577;DHT22;65441;44.748;37.600;2024-03-17T03:43:46;6.35;81.96
76577;DHT22;65441;44.748;37.600;2024-03-17T03:46:14;6.41;81.20
76577;DHT22;65441;44.748;37.600;2024-03-17T03:48:43;6.49;82.66
76577;DHT22;65441;44.748;37.600;2024-03-17T03:51:12;6.37;82.33
76577;DHT22;65441;44.748;37.600;2024-03-17T03:53:40;6.34;83.34
76577;DHT22;65441;44.748;37.600;2024-03-17T03:56:09;6.31;83.12
76577;DHT22;65441;44.748;37.600;2024-03-17T03:58:39;6.38;83.83
76577;DHT22;65441;44.748;37.600;2024-03-17T04:01:10;6.48;83.31
76577;DHT22;65441;44.748;37.600;2024-03-17T04:03:39;6.49;83.23
76577;DHT22;65441;44.748;37.600;2024-03-17T04:06:08;6.71;82.27
76577;DHT22;65441;44.748;37.600;2024-03-17T04:08:39;6.82;82.52
76577;DHT22;65441;44.748;37.600;2024-03-17T04:11:08;6.94;82.10
76577;DHT22;65441;44.748;37.600;2024-03-17T04:13:36;7.10;81.86
76577;DHT22;65441;44.748;37.600;2024-03-17T04:16:05;7.12;81.00
76577;DHT22;65441;44.748;37.600;2024-03-17T04:18:34;7.59;79.08
76577;DHT22;65441;44.748;37.600;2024-03-17T04:21:04;8.01;78.86
76577;DHT22;65441;44.748;37.600;2024-03-17T04:23:33;8.52;77.49
76577;DHT22;65441;44.748;37.600;2024-03-17T04:26:04;8.89;76.02
76577;DHT22;65441;44.748;37.600;2024-03-17T04:28:34;8.89;75.54
76577;DHT22;65441;44.748;37.600;2024-03-17T04:31:03;9.32;73.18
76577;DHT22;65441;44.748;37.600;2024-03-17T04:33:32;9.50;73.84
76577;DHT22;65441;44.748;37.600;2024-03-17T04:36:01;9.83;70.58
76577;DHT22;65441;44.748;37.600;2024-03-17T04:38:30;9.93;71.64
76577;DHT22;65441;44.748;37.600;2024-03-17T04:40:58;10.35;70.49
76577;DHT22;65441;44.748;37.600;2024-03-17T04:43:33;10.58;70.11
76577;DHT22;65441;44.748;37.600;2024-03-17T04:46:05;10.75;68.80
76577;DHT22;65441;44.748;37.600;2024-03-17T04:48:34;11.01;67.62
76577;DHT22;65441;44.748;37.600;2024-03-17T04:51:03;11.29;65.75
76577;DHT22;65441;44.748;37.600;2024-03-17T04:53:32;11.62;65.82
76577;DHT22;65441;44.748;37.600;2024-03-17T04:56:01;11.73;64.67
76577;DHT22;65441;44.748;37.600;2024-03-17T04:58:33;12.00;65.53
76577;DHT22;65441;44.748;37.600;2024-03-17T05:01:05;11.87;65.56
76577;DHT22;65441;44.748;37.600;2024-03-17T05:03:34;12.00;66.65
76577;DHT22;65441;44.748;37.600;2024-03-17T05:06:03;11.93;64.21
76577;DHT22;65441;44.748;37.600;2024-03-17T05:08:33;12.03;65.70
76577;DHT22;65441;44.748;37.600;2024-03-17T05:11:02;12.25;63.96
76577;DHT22;65441;44.748;37.600;2024-03-17T05:13:34;12.38;65.41
76577;DHT22;65441;44.748;37.600;2024-03-17T05:16:03;12.11;63.95
76577;DHT22;65441;44.748;37.600;2024-03-17T05:18:31;12.23;65.30
76577;DHT22;65441;44.748;37.600;2024-03-17T05:21:01;12.21;67.97
76577;DHT22;65441;44.748;37.600;2024-03-17T05:23:31;12.18;65.50
76577;DHT22;65441;44.748;37.600;2024-03-17T05:25:59;12.42;66.06
76577;DHT22;65441;44.748;37.600;2024-03-17T05:28:29;12.28;64.88
76577;DHT22;65441;44.748;37.600;2024-03-17T05:30:59;12.59;65.69
76577;DHT22;65441;44.748;37.600;2024-03-17T05:33:27;12.73;63.76
76577;DHT22;65441;44.748;37.600;2024-03-17T05:35:57;12.91;63.36
76577;DHT22;65441;44.748;37.600;2024-03-17T05:38:26;13.05;65.66
76577;DHT22;65441;44.748;37.600;2024-03-17T05:40:55;13.33;62.01
76577;DHT22;65441;44.748;37.600;2024-03-17T05:43:24;13.33;62.08
76577;DHT22;65441;44.748;37.600;2024-03-17T05:45:53;13.75;60.72
76577;DHT22;65441;44.748;37.600;2024-03-17T05:48:23;13.92;59.82
76577;DHT22;65441;44.748;37.600;2024-03-17T05:50:54;13.98;60.89
76577;DHT22;65441;44.748;37.600;2024-03-17T05:53:23;14.30;62.25
76577;DHT22;65441;44.748;37.600;2024-03-17T05:55:52;14.65;60.04
76577;DHT22;65441;44.748;37.600;2024-03-17T05:58:20;14.83;59.47
76577;DHT22;65441;44.748;37.600;2024-03-17T06:00:49;15.03;57.57
76577;DHT22;65441;44.748;37.600;2024-03-17T06:03:18;15.30;58.04
76577;DHT22;65441;44.748;37.600;2024-03-17T06:05:50;15.47;56.83
76577;DHT22;65441;44.748;37.600;2024-03-17T06:08:20;15.67;57.25
76577;DHT22;65441;44.748;37.600;2024-03-17T06:10:48;15.69;56.75
76577;DHT22;65441;44.748;37.600;2024-03-17T06:13:17;15.97;57.20
76577;DHT22;65441;44.748;37.600;2024-03-17T06:15:45;16.20;57.37
76577;DHT22;65441;44.748;37.600;2024-03-17T06:18:15;16.34;54.82
76577;DHT22;65441;44.748;37.600;2024-03-17T06:20:45;16.69;53.42
76577;DHT22;65441;44.748;37.600;2024-03-17T06:23:15;16.71;53.14
76577;DHT22;65441;44.748;37.600;2024-03-17T06:25:44;16.59;54.36
76577;DHT22;65441;44.748;37.600;2024-03-17T06:28:14;16.65;54.35
76577;DHT22;65441;44.748;37.600;2024-03-17T06:30:43;17.51;53.17
76577;DHT22;65441;44.748;37.600;2024-03-17T06:33:14;17.31;49.19
76577;DHT22;65441;44.748;37.600;2024-03-17T06:35:42;17.38;51.87
76577;DHT22;65441;44.748;37.600;2024-03-17T06:38:10;17.94;51.56
76577;DHT22;65441;44.748;37.600;2024-03-17T06:40:40;18.27;49.89
76577;DHT22;65441;44.748;37.600;2024-03-17T06:43:08;17.93;50.46
76577;DHT22;65441;44.748;37.600;2024-03-17T06:45:36;18.08;48.98
76577;DHT22;65441;44.748;37.600;2024-03-17T06:48:04;18.12;49.36
76577;DHT22;65441;44.748;37.600;2024-03-17T06:50:33;18.21;48.53
76577;DHT22;65441;44.748;37.600;2024-03-17T06:53:01;18.77;46.36
76577;DHT22;65441;44.748;37.600;2024-03-17T06:55:29;19.10;48.27
76577;DHT22;65441;44.748;37.600;2024-03-17T06:57:59;19.21;42.68
76577;DHT22;65441;44.748;37.600;2024-03-17T07:00:27;18.78;46.30
76577;DHT22;65441;44.748;37.600;2024-03-17T07:02:55;18.27;45.94
76577;DHT22;65441;44.748;37.600;2024-03-17T07:05:24;18.71;47.06
76577;DHT22;65441;44.748;37.600;2024-03-17T07:07:52;18.96;45.70
76577;DHT22;65441;44.748;37.600;2024-03-17T07:10:20;19.46;45.32
76577;DHT22;65441;44.748;37.600;2024-03-17T07:12:46;18.30;42.12
76577;DHT22;65441;44.748;37.600;2024-03-17T07:15:16;18.23;44.90
76577;DHT22;65441;44.748;37.600;2024-03-17T07:17:44;17.96;44.97
76577;DHT22;65441;44.748;37.600;2024-03-17T07:20:12;17.82;46.89
76577;DHT22;65441;44.748;37.600;2024-03-17T07:22:40;18.05;45.57
76577;DHT22;65441;44.748;37.600;2024-03-17T07:25:09;17.82;44.76
76577;DHT22;65441;44.748;37.600;2024-03-17T07:27:37;17.83;45.62
76577;DHT22;65441;44.748;37.600;2024-03-17T07:30:07;17.01;47.84
76577;DHT22;65441;44.748;37.600;2024-03-17T07:32:37;16.99;46.55
76577;DHT22;65441;44.748;37.600;2024-03-17T07:35:05;17.61;47.11
76577;DHT22;65441;44.748;37.600;2024-03-17T07:37:33;18.57;48.12
76577;DHT22;65441;44.748;37.600;2024-03-17T07:40:04;18.74;44.38
76577;DHT22;65441;44.748;37.600;2024-03-17T07:42:33;18.00;44.90
76577;DHT22;65441;44.748;37.600;2024-03-17T07:45:04;17.49;47.30
76577;DHT22;65441;44.748;37.600;2024-03-17T07:47:32;17.32;46.12
76577;DHT22;65441;44.748;37.600;2024-03-17T07:50:04;17.40;46.88
76577;DHT22;65441;44.748;37.600;2024-03-17T07:52:33;17.11;46.64
76577;DHT22;65441;44.748;37.600;2024-03-17T07:55:01;17.10;47.30
76577;DHT22;65441;44.748;37.600;2024-03-17T07:57:29;16.66;48.68
76577;DHT22;65441;44.748;37.600;2024-03-17T07:59:57;15.74;50.39
76577;DHT22;65441;44.748;37.600;2024-03-17T08:02:26;15.99;50.82
76577;DHT22;65441;44.748;37.600;2024-03-17T08:04:55;16.14;50.22
76577;DHT22;65441;44.748;37.600;2024-03-17T08:07:25;16.02;52.09
76577;DHT22;65441;44.748;37.600;2024-03-17T08:09:53;15.97;52.09
76577;DHT22;65441;44.748;37.600;2024-03-17T08:12:21;15.93;51.91
76577;DHT22;65441;44.748;37.600;2024-03-17T08:14:49;16.10;50.92
76577;DHT22;65441;44.748;37.600;2024-03-17T08:17:17;16.18;52.47
76577;DHT22;65441;44.748;37.600;2024-03-17T08:19:45;16.08;51.39
76577;DHT22;65441;44.748;37.600;2024-03-17T08:22:14;15.90;51.38
76577;DHT22;65441;44.748;37.600;2024-03-17T08:24:43;15.66;53.85
76577;DHT22;65441;44.748;37.600;2024-03-17T08:27:11;15.74;52.72
76577;DHT22;65441;44.748;37.600;2024-03-17T08:29:39;15.45;54.48
76577;DHT22;65441;44.748;37.600;2024-03-17T08:32:07;15.60;53.22
76577;DHT22;65441;44.748;37.600;2024-03-17T08:34:35;15.32;55.08
76577;DHT22;65441;44.748;37.600;2024-03-17T08:37:03;15.54;54.40
76577;DHT22;65441;44.748;37.600;2024-03-17T08:39:32;15.58;53.37
76577;DHT22;65441;44.748;37.600;2024-03-17T08:44:53;15.82;53.42
76577;DHT22;65441;44.748;37.600;2024-03-17T08:47:21;15.46;54.30
76577;DHT22;65441;44.748;37.600;2024-03-17T08:49:50;15.39;56.37
76577;DHT22;65441;44.748;37.600;2024-03-17T08:52:19;15.48;55.47
76577;DHT22;65441;44.748;37.600;2024-03-17T08:54:48;15.24;57.32
76577;DHT22;65441;44.748;37.600;2024-03-17T08:57:19;15.24;58.16
76577;DHT22;65441;44.748;37.600;2024-03-17T08:59:47;15.18;58.32
76577;DHT22;65441;44.748;37.600;2024-03-17T09:02:15;15.34;58.61
76577;DHT22;65441;44.748;37.600;2024-03-17T09:04:43;15.47;58.85
76577;DHT22;65441;44.748;37.600;2024-03-17T09:07:12;15.26;58.77
76577;DHT22;65441;44.748;37.600;2024-03-17T09:09:42;15.25;57.93
76577;DHT22;65441;44.748;37.600;2024-03-17T09:12:10;15.22;58.13
76577;DHT22;65441;44.748;37.600;2024-03-17T09:14:40;15.07;59.19
76577;DHT22;65441;44.748;37.600;2024-03-17T09:17:08;15.03;59.63
76577;DHT22;65441;44.748;37.600;2024-03-17T09:19:36;15.17;60.44
76577;DHT22;65441;44.748;37.600;2024-03-17T09:22:04;15.45;57.92
76577;DHT22;65441;44.748;37.600;2024-03-17T09:24:32;15.19;58.30
76577;DHT22;65441;44.748;37.600;2024-03-17T09:27:00;14.95;60.78
76577;DHT22;65441;44.748;37.600;2024-03-17T09:29:30;15.43;61.40
76577;DHT22;65441;44.748;37.600;2024-03-17T09:32:04;15.71;57.49
76577;DHT22;65441;44.748;37.600;2024-03-17T09:34:33;15.56;60.18
76577;DHT22;65441;44.748;37.600;2024-03-17T09:37:01;15.59;59.03
76577;DHT22;65441;44.748;37.600;2024-03-17T09:39:29;15.40;59.86
76577;DHT22;65441;44.748;37.600;2024-03-17T09:41:58;15.24;58.13
76577;DHT22;65441;44.748;37.600;2024-03-17T09:44:26;15.12;59.86
76577;DHT22;65441;44.748;37.600;2024-03-17T09:46:54;14.89;59.90
76577;DHT22;65441;44.748;37.600;2024-03-17T09:49:24;15.17;59.12
76577;DHT22;65441;44.748;37.600;2024-03-17T09:51:54;14.88;60.75
76577;DHT22;65441;44.748;37.600;2024-03-17T09:54:25;15.04;60.57
76577;DHT22;65441;44.748;37.600;2024-03-17T09:56:53;15.27;59.22
76577;DHT22;65441;44.748;37.600;2024-03-17T09:59:22;15.03;59.59
76577;DHT22;65441;44.748;37.600;2024-03-17T10:01:50;15.26;60.50
76577;DHT22;65441;44.748;37.600;2024-03-17T10:04:32;15.52;59.37
76577;DHT22;65441;44.748;37.600;2024-03-17T10:07:00;15.46;58.93
76577;DHT22;65441;44.748;37.600;2024-03-17T10:09:29;15.86;59.06
76577;DHT22;65441;44.748;37.600;2024-03-17T10:11:59;15.71;58.33
76577;DHT22;65441;44.748;37.600;2024-03-17T10:14:27;15.08;58.67
76577;DHT22;65441;44.748;37.600;2024-03-17T10:16:55;15.09;62.47
76577;DHT22;65441;44.748;37.600;2024-03-17T10:19:24;15.48;58.57
76577;DHT22;65441;44.748;37.600;2024-03-17T10:22:00;15.51;61.20
76577;DHT22;65441;44.748;37.600;2024-03-17T10:24:29;15.21;60.40
76577;DHT22;65441;44.748;37.600;2024-03-17T10:26:59;14.89;62.60
76577;DHT22;65441;44.748;37.600;2024-03-17T10:29:28;15.04;63.09
76577;DHT22;65441;44.748;37.600;2024-03-17T10:31:59;14.99;61.35
76577;DHT22;65441;44.748;37.600;2024-03-17T10:34:30;15.21;61.63
76577;DHT22;65441;44.748;37.600;2024-03-17T10:37:08;14.88;61.62
76577;DHT22;65441;44.748;37.600;2024-03-17T10:39:39;14.73;61.60
76577;DHT22;65441;44.748;37.600;2024-03-17T10:42:09;14.80;60.86
76577;DHT22;65441;44.748;37.600;2024-03-17T10:44:39;14.94;61.99
76577;DHT22;65441;44.748;37.600;2024-03-17T10:47:17;14.73;60.39
76577;DHT22;65441;44.748;37.600;2024-03-17T10:49:50;15.12;63.76
76577;DHT22;65441;44.748;37.600;2024-03-17T10:52:21;15.17;59.16
76577;DHT22;65441;44.748;37.600;2024-03-17T10:54:52;15.52;59.57
76577;DHT22;65441;44.748;37.600;2024-03-17T10:57:31;15.85;56.75
76577;DHT22;65441;44.748;37.600;2024-03-17T11:00:00;16.29;56.13
76577;DHT22;65441;44.748;37.600;2024-03-17T11:02:32;16.22;55.05
76577;DHT22;65441;44.748;37.600;2024-03-17T11:05:03;15.99;55.91
76577;DHT22;65441;44.748;37.600;2024-03-17T11:07:44;15.80;57.95
76577;DHT22;65441;44.748;37.600;2024-03-17T11:10:16;15.39;58.48
76577;DHT22;65441;44.748;37.600;2024-03-17T11:12:49;15.37;58.42
76577;DHT22;65441;44.748;37.600;2024-03-17T11:15:35;15.09;60.57
76577;DHT22;65441;44.748;37.600;2024-03-17T11:21:18;13.97;66.50
76577;DHT22;65441;44.748;37.600;2024-03-17T11:23:58;13.44;69.80
76577;DHT22;65441;44.748;37.600;2024-03-17T11:26:31;13.12;70.61
76577;DHT22;65441;44.748;37.600;2024-03-17T11:28:59;13.19;71.21
76577;DHT22;65441;44.748;37.600;2024-03-17T11:31:45;13.95;69.84
76577;DHT22;65441;44.748;37.600;2024-03-17T11:34:29;13.80;68.90
76577;DHT22;65441;44.748;37.600;2024-03-17T11:36:57;13.31;70.68
76577;DHT22;65441;44.748;37.600;2024-03-17T11:39:49;13.03;73.66
76577;DHT22;65441;44.748;37.600;2024-03-17T11:42:17;12.34;76.38
76577;DHT22;65441;44.748;37.600;2024-03-17T11:45:02;11.67;79.78
76577;DHT22;65441;44.748;37.600;2024-03-17T11:47:35;11.24;82.21
76577;DHT22;65441;44.748;37.600;2024-03-17T11:50:04;10.78;81.16
76577;DHT22;65441;44.748;37.600;2024-03-17T11:52:32;10.49;81.30
76577;DHT22;65441;44.748;37.600;2024-03-17T11:55:03;10.30;83.94
76577;DHT22;65441;44.748;37.600;2024-03-17T11:57:31;10.04;85.24
76577;DHT22;65441;44.748;37.600;2024-03-17T11:59:59;10.04;84.86
76577;DHT22;65441;44.748;37.600;2024-03-17T12:02:29;9.98;83.78
76577;DHT22;65441;44.748;37.600;2024-03-17T12:04:59;10.07;82.45
76577;DHT22;65441;44.748;37.600;2024-03-17T12:07:27;10.18;82.78
76577;DHT22;65441;44.748;37.600;2024-03-17T12:09:57;10.52;81.97
76577;DHT22;65441;44.748;37.600;2024-03-17T12:12:26;10.84;83.56
76577;DHT22;65441;44.748;37.600;2024-03-17T12:15:02;11.15;83.42
76577;DHT22;65441;44.748;37.600;2024-03-17T12:17:31;11.31;81.04
76577;DHT22;65441;44.748;37.600;2024-03-17T12:19:59;11.49;79.32
76577;DHT22;65441;44.748;37.600;2024-03-17T12:22:26;11.20;76.61
76577;DHT22;65441;44.748;37.600;2024-03-17T12:24:59;10.98;78.44
76577;DHT22;65441;44.748;37.600;2024-03-17T12:27:29;10.97;79.60
76577;DHT22;65441;44.748;37.600;2024-03-17T12:29:59;10.97;77.85
76577;DHT22;65441;44.748;37.600;2024-03-17T12:32:27;11.11;79.27
76577;DHT22;65441;44.748;37.600;2024-03-17T12:34:56;11.18;78.71
76577;DHT22;65441;44.748;37.600;2024-03-17T12:37:25;11.51;81.11
76577;DHT22;65441;44.748;37.600;2024-03-17T12:39:57;11.69;79.91
76577;DHT22;65441;44.748;37.600;2024-03-17T12:42:27;11.85;81.46
76577;DHT22;65441;44.748;37.600;2024-03-17T12:44:57;12.12;78.85
76577;DHT22;65441;44.748;37.600;2024-03-17T12:47:25;12.21;78.43
76577;DHT22;65441;44.748;37.600;2024-03-17T12:49:55;12.16;76.73
76577;DHT22;65441;44.748;37.600;2024-03-17T12:52:23;12.33;78.21
76577;DHT22;65441;44.748;37.600;2024-03-17T12:54:57;12.32;76.66
76577;DHT22;65441;44.748;37.600;2024-03-17T12:57:39;12.19;73.87
76577;DHT22;65441;44.748;37.600;2024-03-17T13:00:26;12.06;74.16
76577;DHT22;65441;44.748;37.600;2024-03-17T13:03:02;12.11;76.09
76577;DHT22;65441;44.748;37.600;2024-03-17T13:05:31;12.07;76.73
76577;DHT22;65441;44.748;37.600;2024-03-17T13:08:00;12.13;76.72
76577;DHT22;65441;44.748;37.600;2024-03-17T13:10:29;11.98;76.60
76577;DHT22;65441;44.748;37.600;2024-03-17T13:12:59;11.84;77.83
76577;DHT22;65441;44.748;37.600;2024-03-17T13:15:29;11.81;75.12
76577;DHT22;65441;44.748;37.600;2024-03-17T13:17:58;11.72;72.35
76577;DHT22;65441;44.748;37.600;2024-03-17T13:20:27;11.75;77.49
76577;DHT22;65441;44.748;37.600;2024-03-17T13:22:55;11.76;77.56
76577;DHT22;65441;44.748;37.600;2024-03-17T13:25:24;11.77;75.84
76577;DHT22;65441;44.748;37.600;2024-03-17T13:27:56;11.75;76.08
76577;DHT22;65441;44.748;37.600;2024-03-17T13:30:24;11.86;77.14
76577;DHT22;65441;44.748;37.600;2024-03-17T13:32:56;11.93;75.85
76577;DHT22;65441;44.748;37.600;2024-03-17T13:35:26;11.96;77.32
76577;DHT22;65441;44.748;37.600;2024-03-17T13:37:55;12.14;76.20
76577;DHT22;65441;44.748;37.600;2024-03-17T13:40:26;12.14;74.44
76577;DHT22;65441;44.748;37.600;2024-03-17T13:42:56;12.04;74.70
76577;DHT22;65441;44.748;37.600;2024-03-17T13:45:28;12.14;73.90
76577;DHT22;65441;44.748;37.600;2024-03-17T13:48:05;12.11;72.68
76577;DHT22;65441;44.748;37.600;2024-03-17T13:50:36;12.22;74.54
76577;DHT22;65441;44.748;37.600;2024-03-17T13:53:04;12.53;72.56
76577;DHT22;65441;44.748;37.600;2024-03-17T13:55:36;12.62;71.00
76577;DHT22;65441;44.748;37.600;2024-03-17T13:58:04;12.61;72.15
76577;DHT22;65441;44.748;37.600;2024-03-17T14:00:32;12.48;70.11
76577;DHT22;65441;44.748;37.600;2024-03-17T14:03:06;12.38;70.96
76577;DHT22;65441;44.748;37.600;2024-03-17T14:05:36;12.43;71.55
76577;DHT22;65441;44.748;37.600;2024-03-17T14:08:07;12.28;71.03
76577;DHT22;65441;44.748;37.600;2024-03-17T14:10:35;12.25;73.38
76577;DHT22;65441;44.748;37.600;2024-03-17T14:13:05;12.22;75.52
76577;DHT22;65441;44.748;37.600;2024-03-17T14:15:35;12.04;76.70
76577;DHT22;65441;44.748;37.600;2024-03-17T14:18:03;12.08;78.30
76577;DHT22;65441;44.748;37.600;2024-03-17T14:20:33;12.03;78.44
76577;DHT22;65441;44.748;37.600;2024-03-17T14:23:02;11.93;78.36
76577;DHT22;65441;44.748;37.600;2024-03-17T14:25:30;11.82;79.13
76577;DHT22;65441;44.748;37.600;2024-03-17T14:28:00;11.72;79.19
76577;DHT22;65441;44.748;37.600;2024-03-17T14:30:29;11.74;80.00
76577;DHT22;65441;44.748;37.600;2024-03-17T14:32:57;11.70;80.86
76577;DHT22;65441;44.748;37.600;2024-03-17T14:35:25;11.68;82.29
76577;DHT22;65441;44.748;37.600;2024-03-17T14:37:55;11.81;80.75
76577;DHT22;65441;44.748;37.600;2024-03-17T14:40:26;11.79;79.02
76577;DHT22;65441;44.748;37.600;2024-03-17T14:42:55;12.01;80.43
76577;DHT22;65441;44.748;37.600;2024-03-17T14:45:23;11.86;78.95
76577;DHT22;65441;44.748;37.600;2024-03-17T14:47:51;11.71;79.79
76577;DHT22;65441;44.748;37.600;2024-03-17T14:50:20;11.62;79.78
76577;DHT22;65441;44.748;37.600;2024-03-17T14:52:49;11.64;81.24
76577;DHT22;65441;44.748;37.600;2024-03-17T14:55:19;11.60;80.79
76577;DHT22;65441;44.748;37.600;2024-03-17T14:57:47;11.45;80.49
76577;DHT22;65441;44.748;37.600;2024-03-17T15:00:15;11.48;80.60
76577;DHT22;65441;44.748;37.600;2024-03-17T15:02:45;11.36;81.02
76577;DHT22;65441;44.748;37.600;2024-03-17T15:05:14;11.37;81.33
76577;DHT22;65441;44.748;37.600;2024-03-17T15:07:44;11.47;81.92
76577;DHT22;65441;44.748;37.600;2024-03-17T15:10:12;11.36;81.63
76577;DHT22;65441;44.748;37.600;2024-03-17T15:12:43;11.41;82.03
76577;DHT22;65441;44.748;37.600;2024-03-17T15:15:11;11.41;81.94
76577;DHT22;65441;44.748;37.600;2024-03-17T15:17:39;11.32;82.48
76577;DHT22;65441;44.748;37.600;2024-03-17T15:20:08;11.28;82.62
76577;DHT22;65441;44.748;37.600;2024-03-17T15:22:43;11.49;86.84
76577;DHT22;65441;44.748;37.600;2024-03-17T15:25:12;11.49;82.36
76577;DHT22;65441;44.748;37.600;2024-03-17T15:27:42;11.81;83.42
76577;DHT22;65441;44.748;37.600;2024-03-17T15:30:12;11.60;81.10
76577;DHT22;65441;44.748;37.600;2024-03-17T15:32:45;11.59;81.06
76577;DHT22;65441;44.748;37.600;2024-03-17T15:35:14;11.81;83.42
76577;DHT22;65441;44.748;37.600;2024-03-17T15:37:42;12.05;84.16
76577;DHT22;65441;44.748;37.600;2024-03-17T15:40:11;12.12;84.39